Time;durP1;ratioP1;P1;durP2;ratioP2;P2;SDS_P1;SDS_P2;PMS_P1;PMS_P2;Temp;Humidity;BMP_temperature;BMP_pressure;BME280_temperature;BME280_humidity;BME280_pressure;Samples;Min_cycle;Max_cycle;Signal;HPM_P1;HPM_P2
2023/09/09 00:01:46;;;;;;;14.32;12.93;;;18.70;99.90;;;;;;5013764;28;20042;-89
2023/09/09 00:04:12;;;;;;;14.35;12.85;;;18.60;99.90;;;;;;4997627;28;20050;-88
2023/09/09 00:06:37;;;;;;;13.80;12.30;;;18.70;99.90;;;;;;5015920;28;20046;-88
2023/09/09 00:09:04;;;;;;;15.93;12.50;;;18.70;99.90;;;;;;5004931;28;20104;-89
2023/09/09 00:11:30;;;;;;;14.38;13.02;;;18.70;99.90;;;;;;5011633;28;20041;-89
2023/09/09 00:13:56;;;;;;;13.60;12.23;;;18.70;99.90;;;;;;5016515;28;20457;-88
2023/09/09 00:16:22;;;;;;;14.43;13.00;;;18.60;99.90;;;;;;4999869;28;20099;-88
2023/09/09 00:18:48;;;;;;;14.32;13.02;;;18.60;99.90;;;;;;5016877;28;20525;-89
2023/09/09 00:21:14;;;;;;;15.80;14.02;;;18.60;99.90;;;;;;5016458;28;20045;-89
2023/09/09 00:23:40;;;;;;;14.30;12.77;;;18.60;99.90;;;;;;5032658;28;20482;-89
2023/09/09 00:26:05;;;;;;;13.68;11.85;;;18.50;99.90;;;;;;5016703;28;20041;-89
2023/09/09 00:28:32;;;;;;;13.27;12.05;;;18.50;99.90;;;;;;5016481;28;20045;-89
2023/09/09 00:30:58;;;;;;;14.23;12.65;;;18.60;99.90;;;;;;5016554;28;20850;-89
2023/09/09 00:33:24;;;;;;;14.77;12.95;;;18.60;99.90;;;;;;5016151;28;20120;-90
2023/09/09 00:35:50;;;;;;;15.05;13.52;;;18.60;99.90;;;;;;5032907;28;20485;-88
2023/09/09 00:38:17;;;;;;;15.30;13.80;;;18.60;99.90;;;;;;5012579;28;20176;-89
2023/09/09 00:41:04;;;;;;;15.18;13.20;;;18.50;99.90;;;;;;5015825;28;20048;-89
2023/09/09 00:43:30;;;;;;;15.23;13.60;;;18.50;99.90;;;;;;5008401;28;20075;-88
2023/09/09 00:45:56;;;;;;;10.57;9.48;;;18.50;99.90;;;;;;4998860;28;20087;-88
2023/09/09 00:48:22;;;;;;;11.80;10.60;;;18.50;99.90;;;;;;5015150;28;20048;-89
2023/09/09 00:50:48;;;;;;;15.60;12.82;;;18.50;99.90;;;;;;5001131;28;20041;-89
2023/09/09 00:53:13;;;;;;;14.07;12.65;;;18.40;99.90;;;;;;5007720;28;20041;-89
2023/09/09 00:55:41;;;;;;;15.35;13.23;;;18.40;99.90;;;;;;5014623;28;20049;-89
2023/09/09 00:58:07;;;;;;;16.27;14.45;;;18.40;99.90;;;;;;4999165;28;20049;-89
2023/09/09 01:00:33;;;;;;;13.93;12.30;;;18.40;99.90;;;;;;5032150;28;20045;-89
2023/09/09 01:02:58;;;;;;;14.85;13.40;;;18.40;99.90;;;;;;4999160;28;20041;-89
2023/09/09 01:05:26;;;;;;;14.95;13.35;;;18.40;99.90;;;;;;5015506;28;20048;-89
2023/09/09 01:07:51;;;;;;;14.52;13.02;;;18.40;99.90;;;;;;5015229;28;20045;-89
2023/09/09 01:10:18;;;;;;;15.85;14.32;;;18.30;99.90;;;;;;5015031;28;20077;-89
2023/09/09 01:12:44;;;;;;;15.95;14.27;;;18.30;99.90;;;;;;5014858;28;20041;-89
2023/09/09 01:15:11;;;;;;;16.83;14.95;;;18.30;99.90;;;;;;5031015;28;20052;-89
2023/09/09 01:17:37;;;;;;;16.60;14.90;;;18.20;99.90;;;;;;5015611;28;20453;-90
2023/09/09 01:20:12;;;;;;;16.23;14.52;;;18.20;99.90;;;;;;5014981;28;20048;-88
2023/09/09 01:22:39;;;;;;;14.38;12.90;;;18.20;99.90;;;;;;5011975;28;20112;-89
2023/09/09 01:25:05;;;;;;;14.50;13.18;;;18.20;99.90;;;;;;4999167;28;20043;-89
2023/09/09 01:27:31;;;;;;;15.85;13.73;;;18.20;99.90;;;;;;5001624;28;20076;-89
2023/09/09 01:29:57;;;;;;;15.60;14.10;;;18.20;99.90;;;;;;5014322;28;20057;-89
2023/09/09 01:32:23;;;;;;;16.90;15.20;;;18.20;99.90;;;;;;5013747;28;20045;-89
2023/09/09 01:34:50;;;;;;;16.88;15.07;;;18.20;99.90;;;;;;5015268;28;20035;-89
2023/09/09 01:37:17;;;;;;;17.10;15.38;;;18.20;99.90;;;;;;5014735;28;20049;-89
2023/09/09 01:39:43;;;;;;;18.55;16.63;;;18.20;99.90;;;;;;5012140;28;20034;-89
2023/09/09 01:42:08;;;;;;;17.75;15.85;;;18.10;99.90;;;;;;5032028;28;20442;-90
2023/09/09 01:44:34;;;;;;;17.13;15.38;;;18.10;99.90;;;;;;5000114;28;20033;-89
2023/09/09 01:47:00;;;;;;;17.30;15.52;;;18.10;99.90;;;;;;5037226;28;20056;-89
2023/09/09 01:49:26;;;;;;;17.55;15.85;;;18.10;99.90;;;;;;5038357;28;20059;-89
2023/09/09 01:51:51;;;;;;;18.00;15.50;;;18.00;99.90;;;;;;5031309;28;20036;-89
2023/09/09 01:54:17;;;;;;;20.50;18.30;;;18.00;99.90;;;;;;5014640;28;20780;-89
2023/09/09 01:56:43;;;;;;;19.20;16.65;;;18.00;99.90;;;;;;5014979;28;20037;-89
2023/09/09 01:59:09;;;;;;;19.50;17.45;;;18.00;99.90;;;;;;5014921;28;20049;-89
2023/09/09 02:01:34;;;;;;;18.73;16.70;;;18.00;99.90;;;;;;4998476;28;20075;-89
2023/09/09 02:04:00;;;;;;;18.75;16.40;;;18.00;99.90;;;;;;5014548;28;20038;-88
2023/09/09 02:06:29;;;;;;;17.65;15.35;;;18.00;99.90;;;;;;4998104;28;21262;-88
2023/09/09 02:08:55;;;;;;;19.95;17.85;;;18.00;99.90;;;;;;5034842;28;20366;-88
2023/09/09 02:11:21;;;;;;;18.35;16.42;;;18.00;99.90;;;;;;5011588;28;20148;-89
2023/09/09 02:13:47;;;;;;;18.23;16.33;;;18.00;99.90;;;;;;4999371;28;20520;-89
2023/09/09 02:16:12;;;;;;;17.33;15.63;;;18.00;99.90;;;;;;4983677;28;20064;-89
2023/09/09 02:18:39;;;;;;;19.85;17.73;;;17.90;99.90;;;;;;5000573;28;20041;-89
2023/09/09 02:21:06;;;;;;;15.82;13.40;;;17.90;99.90;;;;;;4986344;28;20491;-88
2023/09/09 02:23:32;;;;;;;19.90;17.13;;;17.90;99.90;;;;;;5025114;28;20048;-89
2023/09/09 02:25:58;;;;;;;19.88;17.58;;;17.90;99.90;;;;;;5035319;28;20038;-89
2023/09/09 02:28:25;;;;;;;18.85;16.83;;;18.00;99.90;;;;;;5034643;28;20378;-88
2023/09/09 02:30:50;;;;;;;24.02;20.17;;;18.00;99.90;;;;;;5017985;28;20045;-89
2023/09/09 02:33:16;;;;;;;21.85;19.27;;;18.00;99.90;;;;;;5010963;28;20417;-89
2023/09/09 02:35:43;;;;;;;19.92;17.25;;;17.90;99.90;;;;;;5001999;28;20055;-89
2023/09/09 02:38:08;;;;;;;21.58;19.25;;;17.90;99.90;;;;;;5017771;28;20700;-89
2023/09/09 02:40:34;;;;;;;21.30;19.08;;;18.00;99.90;;;;;;5001600;28;20059;-88
2023/09/09 02:43:00;;;;;;;20.85;18.58;;;18.00;99.90;;;;;;5018430;28;20088;-89
2023/09/09 02:45:26;;;;;;;22.85;20.38;;;17.90;99.90;;;;;;5017761;28;20045;-89
2023/09/09 02:47:51;;;;;;;21.75;19.05;;;17.90;99.90;;;;;;5018283;28;20041;-89
2023/09/09 02:50:17;;;;;;;30.30;23.77;;;17.90;99.90;;;;;;5002124;28;20037;-90
2023/09/09 02:52:43;;;;;;;23.25;20.75;;;17.90;99.90;;;;;;5018542;28;20069;-89
2023/09/09 02:55:09;;;;;;;23.33;20.83;;;17.90;99.90;;;;;;5018736;28;20420;-89
2023/09/09 02:57:34;;;;;;;24.45;20.70;;;17.90;99.90;;;;;;5019906;28;20080;-89
2023/09/09 03:00:00;;;;;;;19.95;17.55;;;17.90;99.90;;;;;;5018863;28;20034;-89
2023/09/09 03:02:26;;;;;;;20.67;17.85;;;17.90;99.90;;;;;;5015318;28;20115;-89
2023/09/09 03:04:52;;;;;;;20.15;17.60;;;17.90;99.90;;;;;;5012508;28;20413;-90
2023/09/09 03:07:17;;;;;;;19.83;17.67;;;17.80;99.90;;;;;;5014761;28;20124;-90
2023/09/09 03:09:45;;;;;;;20.20;17.73;;;17.80;99.90;;;;;;5000851;28;20033;-89
2023/09/09 03:12:11;;;;;;;20.40;18.27;;;17.80;99.90;;;;;;5017703;28;20046;-89
2023/09/09 03:14:37;;;;;;;22.38;19.92;;;17.80;99.90;;;;;;5014394;28;20413;-90
2023/09/09 03:17:03;;;;;;;21.98;19.63;;;17.80;99.90;;;;;;5034353;28;20064;-89
2023/09/09 03:19:29;;;;;;;24.20;19.58;;;17.80;99.90;;;;;;5000541;28;20041;-90
2023/09/09 03:21:55;;;;;;;21.35;18.10;;;17.80;99.90;;;;;;5017419;28;20045;-90
2023/09/09 03:24:20;;;;;;;18.95;16.95;;;17.80;99.90;;;;;;5017510;28;20038;-89
2023/09/09 03:26:47;;;;;;;20.23;18.02;;;17.80;99.90;;;;;;5000783;28;20567;-90
2023/09/09 03:29:13;;;;;;;21.80;18.85;;;17.80;99.90;;;;;;5016909;28;20111;-89
2023/09/09 03:31:38;;;;;;;20.25;18.15;;;17.80;99.90;;;;;;5001132;28;20042;-89
2023/09/09 03:34:04;;;;;;;23.73;20.70;;;17.80;99.90;;;;;;4984417;28;20033;-90
2023/09/09 03:36:30;;;;;;;25.55;22.00;;;17.80;99.90;;;;;;5000408;28;20042;-89
2023/09/09 03:38:56;;;;;;;23.15;20.75;;;17.70;99.90;;;;;;5000898;28;20064;-89
2023/09/09 03:41:21;;;;;;;25.10;22.42;;;17.80;99.90;;;;;;5017334;28;20091;-88
2023/09/09 03:43:48;;;;;;;27.88;22.50;;;17.70;99.90;;;;;;5000646;28;20129;-89
2023/09/09 03:46:14;;;;;;;28.63;23.95;;;17.80;99.90;;;;;;5000798;28;20120;-89
2023/09/09 03:48:40;;;;;;;27.40;22.77;;;17.80;99.90;;;;;;5017006;28;20049;-89
2023/09/09 03:51:06;;;;;;;24.05;21.02;;;17.80;99.90;;;;;;5000559;28;20051;-89
2023/09/09 03:53:32;;;;;;;23.75;20.38;;;17.70;99.90;;;;;;5033113;28;20045;-89
2023/09/09 03:56:00;;;;;;;23.98;21.42;;;17.70;99.90;;;;;;5016639;28;20041;-89
2023/09/09 03:58:26;;;;;;;22.50;20.00;;;17.70;99.90;;;;;;5016806;28;20045;-89
2023/09/09 04:01:05;;;;;;;24.05;21.30;;;17.70;99.90;;;;;;5003962;28;20067;-87
2023/09/09 04:03:33;;;;;;;26.58;23.23;;;17.70;99.90;;;;;;5041887;28;20021;-89
2023/09/09 04:06:03;;;;;;;26.65;23.63;;;17.70;99.90;;;;;;5008074;28;20041;-89
2023/09/09 04:08:30;;;;;;;25.45;22.52;;;17.70;99.90;;;;;;5042184;28;20512;-90
2023/09/09 04:10:56;;;;;;;27.70;24.70;;;17.70;99.90;;;;;;4999738;28;20038;-89
2023/09/09 04:13:21;;;;;;;27.25;22.88;;;17.70;99.90;;;;;;4999596;28;20118;-90
2023/09/09 04:15:47;;;;;;;24.80;21.58;;;17.70;99.90;;;;;;5000148;28;20045;-89
2023/09/09 04:18:13;;;;;;;23.33;20.38;;;17.70;99.90;;;;;;5027323;28;20041;-90
2023/09/09 04:20:39;;;;;;;21.23;18.80;;;17.60;99.90;;;;;;4996813;28;20585;-89
2023/09/09 04:23:06;;;;;;;21.83;19.63;;;17.60;99.90;;;;;;5016982;28;20041;-89
2023/09/09 04:25:31;;;;;;;21.15;18.95;;;17.60;99.90;;;;;;5016297;28;20041;-89
2023/09/09 04:27:57;;;;;;;24.90;21.73;;;17.50;99.90;;;;;;5016725;28;20041;-89
2023/09/09 04:30:23;;;;;;;33.50;25.48;;;17.50;99.90;;;;;;5015426;28;20092;-89
2023/09/09 04:32:48;;;;;;;23.98;21.25;;;17.50;99.90;;;;;;4999943;28;20400;-90
2023/09/09 04:35:14;;;;;;;29.52;24.25;;;17.40;99.90;;;;;;5000296;28;20120;-90
2023/09/09 04:37:40;;;;;;;25.35;22.13;;;17.40;99.90;;;;;;4999723;28;20033;-90
2023/09/09 04:40:06;;;;;;;25.60;22.88;;;17.40;99.90;;;;;;5015950;28;20539;-90
2023/09/09 04:42:33;;;;;;;25.88;22.63;;;17.40;99.90;;;;;;4999530;28;20052;-90
2023/09/09 04:44:59;;;;;;;25.77;23.00;;;17.40;99.90;;;;;;5016053;28;20491;-90
2023/09/09 04:47:25;;;;;;;27.35;24.15;;;17.40;99.90;;;;;;5006920;28;20041;-89
2023/09/09 04:49:50;;;;;;;28.73;23.80;;;17.40;99.90;;;;;;5012151;28;20034;-90
2023/09/09 04:52:16;;;;;;;28.63;24.33;;;17.40;99.90;;;;;;5026152;28;20125;-89
2023/09/09 04:54:44;;;;;;;27.35;23.85;;;17.30;99.90;;;;;;4982909;28;20073;-90
2023/09/09 04:57:13;;;;;;;30.20;26.17;;;17.30;99.90;;;;;;4994007;28;20504;-89
2023/09/09 04:59:39;;;;;;;32.88;28.08;;;17.30;99.90;;;;;;5008337;28;20037;-90
2023/09/09 05:02:05;;;;;;;27.95;24.95;;;17.30;99.90;;;;;;5032104;28;20033;-89
2023/09/09 05:04:31;;;;;;;29.42;26.25;;;17.30;99.90;;;;;;5015775;28;20124;-89
2023/09/09 05:06:56;;;;;;;30.17;26.77;;;17.30;99.90;;;;;;5015001;28;20049;-89
2023/09/09 05:09:22;;;;;;;31.90;28.42;;;17.30;99.90;;;;;;5016038;28;20063;-89
2023/09/09 05:11:48;;;;;;;33.50;29.35;;;17.30;99.90;;;;;;5017590;28;20037;-89
2023/09/09 05:14:13;;;;;;;32.78;27.77;;;17.40;99.90;;;;;;4979669;28;20116;-89
2023/09/09 05:16:39;;;;;;;28.30;25.15;;;17.30;99.90;;;;;;4998914;28;20056;-90
2023/09/09 05:19:05;;;;;;;35.33;30.13;;;17.30;99.90;;;;;;5014887;28;20128;-89
2023/09/09 05:21:31;;;;;;;30.25;26.50;;;17.40;99.90;;;;;;5015403;28;20048;-89
2023/09/09 05:23:56;;;;;;;32.78;29.02;;;17.40;99.90;;;;;;5031305;28;20535;-88
2023/09/09 05:26:22;;;;;;;29.77;26.27;;;17.40;99.90;;;;;;5014759;28;20045;-88
2023/09/09 05:28:48;;;;;;;31.35;26.50;;;17.40;99.90;;;;;;5008275;28;20624;-88
2023/09/09 05:31:15;;;;;;;32.60;27.83;;;17.40;99.90;;;;;;5009178;28;20436;-89
2023/09/09 05:33:41;;;;;;;33.30;28.25;;;17.40;99.90;;;;;;5014869;28;20453;-89
2023/09/09 05:36:07;;;;;;;29.77;26.58;;;17.40;99.90;;;;;;5014575;28;20088;-89
2023/09/09 05:38:32;;;;;;;32.30;27.05;;;17.40;99.90;;;;;;4968814;28;20052;-88
2023/09/09 05:40:58;;;;;;;31.40;28.00;;;17.40;99.90;;;;;;5015498;28;20072;-88
2023/09/09 05:43:24;;;;;;;39.50;33.75;;;17.50;99.90;;;;;;5004907;28;20034;-90
2023/09/09 05:45:49;;;;;;;35.08;31.27;;;17.50;99.90;;;;;;5009601;28;20041;-88
2023/09/09 05:48:15;;;;;;;34.70;28.98;;;17.50;99.90;;;;;;5014569;28;20468;-88
2023/09/09 05:50:41;;;;;;;36.00;30.90;;;17.60;99.90;;;;;;5014513;28;21332;-88
2023/09/09 05:53:07;;;;;;;38.85;33.47;;;17.60;99.90;;;;;;5014426;28;20564;-87
2023/09/09 05:55:33;;;;;;;35.67;30.88;;;17.60;99.90;;;;;;5011599;28;20120;-87
2023/09/09 05:57:59;;;;;;;36.28;31.42;;;17.70;99.90;;;;;;5013354;28;20088;-87
2023/09/09 06:00:25;;;;;;;36.80;30.98;;;17.80;99.90;;;;;;5003678;28;20037;-87
2023/09/09 06:02:51;;;;;;;41.22;34.38;;;17.80;99.90;;;;;;5025335;28;20052;-87
2023/09/09 06:05:17;;;;;;;42.30;33.03;;;17.90;99.90;;;;;;4994413;28;20050;-88
2023/09/09 06:07:45;;;;;;;38.55;32.10;;;18.00;99.90;;;;;;5004139;28;20038;-87
2023/09/09 06:10:11;;;;;;;34.83;30.63;;;18.00;99.90;;;;;;5012569;28;20042;-87
2023/09/09 06:12:37;;;;;;;36.88;31.95;;;18.10;99.90;;;;;;5014314;28;20046;-88
2023/09/09 06:15:03;;;;;;;39.70;32.70;;;18.10;99.90;;;;;;5011622;28;20037;-87
2023/09/09 06:17:29;;;;;;;45.25;34.33;;;18.20;99.90;;;;;;4999657;28;20038;-83
2023/09/09 06:19:54;;;;;;;45.33;36.20;;;18.30;99.90;;;;;;5026002;28;20421;-83
2023/09/09 06:22:20;;;;;;;41.67;35.35;;;18.40;99.90;;;;;;5000163;28;20048;-82
2023/09/09 06:24:46;;;;;;;40.88;34.53;;;18.50;99.90;;;;;;5020877;28;20091;-82
2023/09/09 06:27:12;;;;;;;40.35;35.10;;;18.60;99.90;;;;;;5002260;28;20120;-83
2023/09/09 06:29:38;;;;;;;42.70;37.30;;;18.60;99.90;;;;;;5030506;28;20073;-84
2023/09/09 06:32:06;;;;;;;44.60;37.05;;;18.70;99.90;;;;;;5031189;28;20045;-83
2023/09/09 06:34:32;;;;;;;45.03;37.55;;;18.80;99.90;;;;;;5014809;28;20038;-83
2023/09/09 06:36:58;;;;;;;43.80;36.70;;;18.90;99.90;;;;;;5015134;28;20144;-83
2023/09/09 06:39:23;;;;;;;39.75;34.17;;;18.90;99.90;;;;;;5032075;28;20073;-84
2023/09/09 06:41:50;;;;;;;41.47;34.28;;;19.00;99.90;;;;;;5030810;28;20470;-84
2023/09/09 06:44:16;;;;;;;40.47;34.33;;;19.10;99.90;;;;;;5031028;28;20041;-83
2023/09/09 06:46:41;;;;;;;43.72;37.10;;;19.10;99.90;;;;;;4993662;28;20049;-84
2023/09/09 06:49:07;;;;;;;40.63;36.20;;;19.20;99.90;;;;;;5009971;28;20405;-83
2023/09/09 06:51:33;;;;;;;42.45;34.83;;;19.30;99.90;;;;;;5014398;28;20045;-84
2023/09/09 06:53:58;;;;;;;42.58;35.33;;;19.40;99.90;;;;;;5000215;28;20037;-83
2023/09/09 06:56:24;;;;;;;42.20;34.92;;;19.50;99.90;;;;;;5034835;28;20040;-83
2023/09/09 06:58:50;;;;;;;43.95;37.47;;;19.50;99.90;;;;;;5019112;28;20033;-83
2023/09/09 07:01:16;;;;;;;39.28;33.97;;;19.60;99.90;;;;;;5034605;28;20430;-83
2023/09/09 07:03:42;;;;;;;41.58;35.70;;;19.70;99.90;;;;;;5035744;28;20041;-83
2023/09/09 07:06:07;;;;;;;41.22;34.80;;;19.80;99.90;;;;;;5010860;28;20090;-83
2023/09/09 07:08:39;;;;;;;43.65;36.47;;;19.90;99.90;;;;;;5015973;28;20648;-84
2023/09/09 07:11:04;;;;;;;42.95;35.72;;;20.00;99.90;;;;;;5017988;28;20396;-83
2023/09/09 07:13:30;;;;;;;39.95;33.63;;;20.00;99.90;;;;;;5017061;28;20033;-84
2023/09/09 07:15:56;;;;;;;39.30;34.65;;;20.10;99.90;;;;;;5013225;28;20108;-84
2023/09/09 07:18:23;;;;;;;37.70;33.60;;;20.20;99.90;;;;;;5009803;28;20128;-84
2023/09/09 07:20:49;;;;;;;41.92;33.40;;;20.20;99.90;;;;;;5008931;28;20095;-83
2023/09/09 07:23:15;;;;;;;40.53;33.92;;;20.40;99.90;;;;;;5016405;28;20448;-84
2023/09/09 07:25:43;;;;;;;42.42;34.72;;;20.40;99.90;;;;;;5017033;28;20429;-83
2023/09/09 07:28:09;;;;;;;42.47;34.92;;;20.50;99.90;;;;;;5032943;28;20775;-83
2023/09/09 07:30:35;;;;;;;39.28;34.20;;;20.60;99.90;;;;;;5016057;28;20057;-83
2023/09/09 07:33:04;;;;;;;38.95;32.88;;;20.70;99.90;;;;;;5003056;28;20100;-83
2023/09/09 07:35:30;;;;;;;44.25;34.65;;;20.80;99.90;;;;;;5014479;28;20459;-83
2023/09/09 07:37:57;;;;;;;41.85;34.72;;;20.90;99.90;;;;;;5016006;28;20037;-83
2023/09/09 07:40:23;;;;;;;39.20;33.75;;;21.00;99.90;;;;;;4999025;28;20046;-82
2023/09/09 07:42:50;;;;;;;39.05;32.72;;;21.10;99.90;;;;;;5010891;28;20080;-83
2023/09/09 07:45:16;;;;;;;40.25;33.72;;;21.20;99.90;;;;;;5000159;28;20233;-83
2023/09/09 07:47:42;;;;;;;39.15;32.80;;;21.30;99.90;;;;;;5015873;28;20040;-83
2023/09/09 07:50:08;;;;;;;36.20;31.85;;;21.40;99.90;;;;;;5015283;28;20045;-83
2023/09/09 07:52:34;;;;;;;43.10;34.15;;;21.50;99.90;;;;;;5033770;28;20037;-83
2023/09/09 07:55:00;;;;;;;35.55;29.80;;;21.60;99.90;;;;;;5016546;28;20132;-84
2023/09/09 07:57:25;;;;;;;34.60;30.90;;;21.70;99.90;;;;;;4999721;28;20055;-83
2023/09/09 07:59:51;;;;;;;36.53;32.53;;;21.80;99.90;;;;;;4984943;28;20038;-82
2023/09/09 08:02:17;;;;;;;37.83;30.67;;;22.00;99.90;;;;;;5004067;28;20424;-83
2023/09/09 08:04:43;;;;;;;34.65;30.92;;;22.10;99.90;;;;;;5030959;28;20033;-84
2023/09/09 08:07:09;;;;;;;35.20;31.45;;;22.20;99.90;;;;;;5015546;28;20432;-83
2023/09/09 08:09:34;;;;;;;31.30;28.10;;;22.30;99.90;;;;;;5016909;28;20041;-83
2023/09/09 08:12:00;;;;;;;32.60;28.17;;;22.40;99.90;;;;;;5004075;28;20044;-83
2023/09/09 08:14:26;;;;;;;33.83;29.00;;;22.50;99.90;;;;;;5032020;28;20056;-83
2023/09/09 08:16:51;;;;;;;32.03;28.25;;;22.70;99.90;;;;;;5015771;28;20535;-83
2023/09/09 08:19:17;;;;;;;31.33;27.85;;;22.80;99.90;;;;;;4996105;28;20053;-83
2023/09/09 08:21:43;;;;;;;31.73;27.38;;;22.90;99.90;;;;;;4999481;28;20079;-83
2023/09/09 08:24:09;;;;;;;29.58;26.35;;;23.00;99.90;;;;;;5015460;28;20080;-83
2023/09/09 08:26:35;;;;;;;28.48;25.48;;;23.10;99.90;;;;;;5015594;28;20038;-84
2023/09/09 08:29:00;;;;;;;28.60;25.58;;;23.20;99.90;;;;;;5015500;28;20040;-84
2023/09/09 08:31:27;;;;;;;29.30;24.77;;;23.30;99.90;;;;;;5031968;28;20497;-83
2023/09/09 08:33:53;;;;;;;29.05;24.80;;;23.40;99.90;;;;;;5015743;28;20045;-83
2023/09/09 08:36:19;;;;;;;31.42;26.67;;;23.40;99.90;;;;;;5019708;28;20101;-80
2023/09/09 08:38:44;;;;;;;28.42;25.45;;;23.50;99.90;;;;;;5012323;28;20042;-82
2023/09/09 08:41:22;;;;;;;30.02;26.20;;;23.60;99.90;;;;;;4992614;28;20478;-85
2023/09/09 08:44:15;;;;;;;30.40;26.98;;;23.70;99.90;;;;;;5033094;28;20129;-83
2023/09/09 08:46:41;;;;;;;31.83;27.98;;;23.80;99.90;;;;;;5029852;28;20048;-82
2023/09/09 08:49:12;;;;;;;31.50;28.10;;;24.00;99.90;;;;;;4996031;28;20057;-88
2023/09/09 08:51:46;;;;;;;30.05;26.92;;;24.00;99.90;;;;;;5013521;28;20481;-90
2023/09/09 08:54:13;;;;;;;31.02;27.02;;;24.10;99.90;;;;;;5012681;28;20053;-88
2023/09/09 08:56:39;;;;;;;31.23;27.88;;;24.10;99.90;;;;;;5008033;28;20051;-89
2023/09/09 08:59:06;;;;;;;31.38;28.02;;;24.20;99.90;;;;;;5016019;28;20046;-88
2023/09/09 09:01:35;;;;;;;30.60;25.90;;;24.30;99.90;;;;;;5016457;28;20045;-88
2023/09/09 09:04:01;;;;;;;29.38;26.02;;;24.40;99.90;;;;;;4997044;28;20033;-89
2023/09/09 09:06:27;;;;;;;28.17;23.48;;;24.50;99.90;;;;;;4997619;28;20050;-88
2023/09/09 09:08:53;;;;;;;27.25;24.45;;;24.60;99.90;;;;;;5000325;28;20037;-89
2023/09/09 09:11:21;;;;;;;27.98;24.70;;;24.70;99.90;;;;;;5015928;28;20091;-90
2023/09/09 09:13:47;;;;;;;28.13;25.02;;;24.80;99.90;;;;;;5016012;28;20050;-86
2023/09/09 09:16:13;;;;;;;27.52;24.70;;;24.90;99.90;;;;;;5015210;28;20041;-88
2023/09/09 09:18:39;;;;;;;28.25;23.67;;;25.00;99.90;;;;;;4992813;28;20092;-88
2023/09/09 09:21:06;;;;;;;26.25;23.55;;;25.00;99.90;;;;;;4999695;28;20037;-89
2023/09/09 09:23:32;;;;;;;26.60;23.80;;;25.20;99.90;;;;;;5015780;28;20053;-88
2023/09/09 09:25:58;;;;;;;26.90;24.00;;;25.20;99.90;;;;;;5015990;28;20052;-88
2023/09/09 09:28:28;;;;;;;26.25;23.50;;;25.40;99.90;;;;;;5008290;28;20033;-88
2023/09/09 09:30:57;;;;;;;25.17;21.42;;;25.50;99.90;;;;;;5012583;28;20105;-90
2023/09/09 09:33:24;;;;;;;24.95;22.38;;;25.60;99.90;;;;;;5014964;28;20048;-92
2023/09/09 09:35:51;;;;;;;23.80;21.30;;;25.60;99.90;;;;;;5017030;28;20377;-89
2023/09/09 09:38:18;;;;;;;23.45;21.10;;;25.70;99.90;;;;;;5021579;28;20041;-88
2023/09/09 09:40:44;;;;;;;23.42;21.20;;;25.80;99.90;;;;;;5020714;28;20492;-88
2023/09/09 09:43:19;;;;;;;20.95;18.80;;;25.90;99.90;;;;;;5036081;28;20056;-90
2023/09/09 09:45:45;;;;;;;22.23;18.45;;;26.00;99.90;;;;;;5010589;28;20124;-90
2023/09/09 09:48:25;;;;;;;20.27;18.27;;;26.00;99.90;;;;;;5000183;28;20124;-89
2023/09/09 09:50:53;;;;;;;20.55;17.55;;;26.10;99.90;;;;;;4997899;28;20041;-88
2023/09/09 09:53:19;;;;;;;22.27;18.92;;;26.20;99.90;;;;;;5015469;28;20052;-89
2023/09/09 09:55:46;;;;;;;17.73;15.95;;;26.30;99.90;;;;;;5025644;28;20041;-88
2023/09/09 09:58:13;;;;;;;17.65;15.77;;;26.40;99.90;;;;;;5015887;28;20037;-88
2023/09/09 10:00:39;;;;;;;19.40;17.02;;;26.50;99.90;;;;;;5015625;28;20051;-90
2023/09/09 10:03:06;;;;;;;17.08;15.27;;;26.60;99.90;;;;;;5015471;28;20045;-88
2023/09/09 10:05:33;;;;;;;19.77;16.10;;;26.60;99.90;;;;;;5031071;28;20405;-86
2023/09/09 10:08:16;;;;;;;15.75;14.07;;;26.60;99.90;;;;;;5014689;28;20104;-89
2023/09/09 10:11:04;;;;;;;20.55;16.85;;;26.70;99.90;;;;;;5015155;28;20045;-91
2023/09/09 10:13:53;;;;;;;17.08;15.15;;;26.80;99.90;;;;;;5014576;28;20405;-91
2023/09/09 10:16:21;;;;;;;19.52;17.52;;;26.90;99.90;;;;;;5011018;28;20124;-90
2023/09/09 10:18:49;;;;;;;19.63;17.65;;;26.90;99.90;;;;;;4999536;28;20718;-89
2023/09/09 10:21:17;;;;;;;19.27;16.85;;;27.00;99.90;;;;;;5014427;28;20128;-88
2023/09/09 10:23:44;;;;;;;21.63;19.38;;;27.10;99.90;;;;;;5011290;28;20048;-87
2023/09/09 10:26:11;;;;;;;21.67;19.10;;;27.20;99.90;;;;;;5014706;28;20068;-88
2023/09/09 10:28:38;;;;;;;20.30;18.20;;;27.30;99.90;;;;;;5015662;28;20033;-91
2023/09/09 10:31:05;;;;;;;20.15;17.88;;;27.30;99.90;;;;;;5002275;28;20555;-88
2023/09/09 10:33:31;;;;;;;20.20;18.15;;;27.30;99.90;;;;;;5002049;28;20481;-89
2023/09/09 10:35:58;;;;;;;23.00;18.77;;;27.30;99.90;;;;;;5018497;28;20085;-88
2023/09/09 10:38:26;;;;;;;20.13;18.05;;;27.50;99.90;;;;;;5018516;28;20099;-89
2023/09/09 10:40:52;;;;;;;21.67;19.40;;;27.40;99.90;;;;;;5018136;28;20041;-87
2023/09/09 10:43:18;;;;;;;22.38;20.13;;;27.50;99.90;;;;;;5001468;28;20065;-88
2023/09/09 10:45:45;;;;;;;19.45;17.42;;;27.40;99.90;;;;;;5017601;28;20496;-86
2023/09/09 10:48:11;;;;;;;21.50;18.95;;;27.50;99.90;;;;;;5024511;28;20121;-87
2023/09/09 10:50:55;;;;;;;20.80;16.15;;;27.50;99.90;;;;;;5024493;28;20507;-88
2023/09/09 10:53:28;;;;;;;17.98;16.08;;;27.70;99.90;;;;;;5018914;28;20034;-86
2023/09/09 10:55:56;;;;;;;18.73;16.67;;;27.70;99.90;;;;;;5044580;28;20038;-86
2023/09/09 10:58:33;;;;;;;19.45;17.27;;;27.80;99.90;;;;;;5005742;28;20496;-89
2023/09/09 11:01:00;;;;;;;17.83;15.82;;;27.90;99.90;;;;;;5018793;28;20053;-89
2023/09/09 11:03:38;;;;;;;16.95;14.02;;;27.90;99.90;;;;;;5017404;28;20045;-91
2023/09/09 11:06:06;;;;;;;20.05;17.30;;;28.00;99.90;;;;;;5018041;28;20033;-90
2023/09/09 11:08:42;;;;;;;18.23;16.33;;;27.90;99.90;;;;;;5016826;28;20038;-90
2023/09/09 11:11:18;;;;;;;18.90;17.00;;;28.00;99.90;;;;;;5015834;28;20057;-93
2023/09/09 11:14:03;;;;;;;17.20;15.43;;;28.10;99.90;;;;;;5020317;28;20065;-89
2023/09/09 11:16:32;;;;;;;18.42;16.58;;;28.10;99.90;;;;;;5028805;28;20374;-90
2023/09/09 11:19:05;;;;;;;18.65;16.77;;;28.20;99.90;;;;;;5033645;28;20429;-89
2023/09/09 11:21:33;;;;;;;19.50;17.40;;;28.20;99.90;;;;;;5030560;28;20037;-87
2023/09/09 11:24:00;;;;;;;18.30;16.38;;;28.30;99.90;;;;;;4997728;28;20477;-88
2023/09/09 11:26:27;;;;;;;20.15;16.55;;;28.20;99.90;;;;;;4981433;28;20081;-88
2023/09/09 11:28:54;;;;;;;18.45;15.57;;;28.40;99.90;;;;;;4997381;28;20050;-89
2023/09/09 11:31:20;;;;;;;18.83;15.50;;;28.30;99.90;;;;;;5020322;28;20054;-92
2023/09/09 11:33:46;;;;;;;17.77;15.10;;;28.40;99.90;;;;;;5017234;28;20431;-89
2023/09/09 11:36:17;;;;;;;20.85;16.75;;;28.40;99.90;;;;;;5016946;28;20077;-90
2023/09/09 11:38:43;;;;;;;16.55;14.55;;;28.60;99.90;;;;;;5033473;28;20393;-89
2023/09/09 11:41:16;;;;;;;17.42;15.65;;;28.60;99.90;;;;;;5016546;28;20092;-89
2023/09/09 11:43:42;;;;;;;21.25;19.02;;;28.70;99.90;;;;;;5016961;28;20099;-89
2023/09/09 11:46:07;;;;;;;18.27;16.23;;;28.70;99.90;;;;;;5016789;28;20057;-89
2023/09/09 11:48:36;;;;;;;24.02;20.65;;;28.80;99.90;;;;;;5031175;28;20042;-89
2023/09/09 11:51:01;;;;;;;21.95;17.50;;;28.80;99.90;;;;;;4998849;28;20038;-90
2023/09/09 11:53:27;;;;;;;17.50;15.57;;;28.80;99.90;;;;;;5016157;28;20044;-88
2023/09/09 11:55:54;;;;;;;19.80;14.73;;;28.70;99.90;;;;;;5017864;28;20037;-89
2023/09/09 11:58:20;;;;;;;17.02;15.35;;;28.70;99.90;;;;;;5017872;28;20052;-89
2023/09/09 12:00:46;;;;;;;16.75;15.05;;;28.60;99.90;;;;;;5032704;28;20041;-89
2023/09/09 12:03:20;;;;;;;14.80;12.43;;;28.60;99.90;;;;;;5016172;28;20052;-90
2023/09/09 12:05:48;;;;;;;15.85;13.43;;;28.70;99.90;;;;;;5030187;28;20048;-89
2023/09/09 12:08:14;;;;;;;13.40;11.90;;;28.70;99.90;;;;;;5031851;28;20120;-90
2023/09/09 12:10:40;;;;;;;14.95;13.05;;;28.90;99.90;;;;;;5004588;28;20719;-90
2023/09/09 12:13:06;;;;;;;14.73;13.02;;;29.00;99.90;;;;;;5000938;28;20516;-89
2023/09/09 12:15:32;;;;;;;15.30;11.75;;;29.00;99.90;;;;;;5013293;28;20172;-90
2023/09/09 12:17:59;;;;;;;13.57;12.07;;;29.10;99.90;;;;;;5032915;28;20044;-90
2023/09/09 12:20:25;;;;;;;16.52;12.10;;;29.10;99.90;;;;;;5033376;28;20473;-90
2023/09/09 12:22:52;;;;;;;14.15;12.68;;;29.00;99.90;;;;;;5016842;28;20034;-89
2023/09/09 12:25:36;;;;;;;13.75;12.30;;;29.00;99.90;;;;;;5009455;28;20489;-88
2023/09/09 12:28:03;;;;;;;15.18;13.68;;;28.90;99.90;;;;;;4991697;28;20689;-87